sensor_id;sensor_type;location;lat;lon;timestamp;temperature;humidity
11035;DHT22;5571;48.110;-1.706;2023-12-20T00:00:53;8.20;99.90
11035;DHT22;5571;48.110;-1.706;2023-12-20T00:03:19;8.20;99.90
11035;DHT22;5571;48.110;-1.706;2023-12-20T00:05:44;8.20;99.90
11035;DHT22;5571;48.110;-1.706;2023-12-20T00:08:10;8.20;99.90
11035;DHT22;5571;48.110;-1.706;2023-12-20T00:10:36;8.10;99.90
11035;DHT22;5571;48.110;-1.706;2023-12-20T00:13:01;8.20;99.90
11035;DHT22;5571;48.110;-1.706;2023-12-20T00:15:27;8.10;99.90
11035;DHT22;5571;48.110;-1.706;2023-12-20T00:17:52;8.00;99.90
11035;DHT22;5571;48.110;-1.706;2023-12-20T00:20:18;8.00;99.90
11035;DHT22;5571;48.110;-1.706;2023-12-20T00:22:44;8.00;99.90
11035;DHT22;5571;48.110;-1.706;2023-12-20T00:25:09;7.90;99.90
11035;DHT22;5571;48.110;-1.706;2023-12-20T00:27:35;7.90;99.90
11035;DHT22;5571;48.110;-1.706;2023-12-20T00:30:00;7.90;99.90
11035;DHT22;5571;48.110;-1.706;2023-12-20T00:32:26;7.90;99.90
11035;DHT22;5571;48.110;-1.706;2023-12-20T00:34:52;7.90;99.90
11035;DHT22;5571;48.110;-1.706;2023-12-20T00:37:17;7.80;99.90
11035;DHT22;5571;48.110;-1.706;2023-12-20T00:39:43;7.70;99.90
11035;DHT22;5571;48.110;-1.706;2023-12-20T00:42:09;7.70;99.90
11035;DHT22;5571;48.110;-1.706;2023-12-20T00:44:34;7.70;99.90
11035;DHT22;5571;48.110;-1.706;2023-12-20T00:47:00;7.60;99.90
11035;DHT22;5571;48.110;-1.706;2023-12-20T00:49:26;7.60;99.90
11035;DHT22;5571;48.110;-1.706;2023-12-20T00:51:52;7.60;99.90
11035;DHT22;5571;48.110;-1.706;2023-12-20T00:54:18;7.60;99.90
11035;DHT22;5571;48.110;-1.706;2023-12-20T00:56:44;7.50;99.90
11035;DHT22;5571;48.110;-1.706;2023-12-20T00:59:09;7.60;99.90
11035;DHT22;5571;48.110;-1.706;2023-12-20T01:01:35;7.50;99.90
11035;DHT22;5571;48.110;-1.706;2023-12-20T01:04:00;7.50;99.90
11035;DHT22;5571;48.110;-1.706;2023-12-20T01:06:26;7.40;99.90
11035;DHT22;5571;48.110;-1.706;2023-12-20T01:08:51;7.40;99.90
11035;DHT22;5571;48.110;-1.706;2023-12-20T01:11:17;7.40;99.90
11035;DHT22;5571;48.110;-1.706;2023-12-20T01:13:43;7.50;99.90
11035;DHT22;5571;48.110;-1.706;2023-12-20T01:16:11;7.50;99.90
11035;DHT22;5571;48.110;-1.706;2023-12-20T01:18:37;7.40;99.90
11035;DHT22;5571;48.110;-1.706;2023-12-20T01:21:04;7.40;99.90
11035;DHT22;5571;48.110;-1.706;2023-12-20T01:23:30;7.40;99.90
11035;DHT22;5571;48.110;-1.706;2023-12-20T01:25:56;7.30;99.90
11035;DHT22;5571;48.110;-1.706;2023-12-20T01:28:22;7.30;99.90
11035;DHT22;5571;48.110;-1.706;2023-12-20T01:30:47;7.40;99.90
11035;DHT22;5571;48.110;-1.706;2023-12-20T01:33:13;7.40;99.90
11035;DHT22;5571;48.110;-1.706;2023-12-20T01:35:39;7.30;99.90
11035;DHT22;5571;48.110;-1.706;2023-12-20T01:38:04;7.40;99.90
11035;DHT22;5571;48.110;-1.706;2023-12-20T01:40:30;7.30;99.90
11035;DHT22;5571;48.110;-1.706;2023-12-20T01:43:00;7.30;99.90
11035;DHT22;5571;48.110;-1.706;2023-12-20T01:45:26;7.20;99.90
11035;DHT22;5571;48.110;-1.706;2023-12-20T01:47:52;7.30;99.90
11035;DHT22;5571;48.110;-1.706;2023-12-20T01:50:18;7.30;99.90
11035;DHT22;5571;48.110;-1.706;2023-12-20T01:52:44;7.30;99.90
11035;DHT22;5571;48.110;-1.706;2023-12-20T01:55:10;7.20;99.90
11035;DHT22;5571;48.110;-1.706;2023-12-20T01:57:41;7.30;99.90
11035;DHT22;5571;48.110;-1.706;2023-12-20T02:00:07;7.30;99.90
11035;DHT22;5571;48.110;-1.706;2023-12-20T02:02:37;7.40;99.90
11035;DHT22;5571;48.110;-1.706;2023-12-20T02:05:05;7.40;99.90
11035;DHT22;5571;48.110;-1.706;2023-12-20T02:07:31;7.40;99.90
11035;DHT22;5571;48.110;-1.706;2023-12-20T02:09:57;7.40;99.90
11035;DHT22;5571;48.110;-1.706;2023-12-20T02:12:22;7.40;99.90
11035;DHT22;5571;48.110;-1.706;2023-12-20T02:14:49;7.40;99.90
11035;DHT22;5571;48.110;-1.706;2023-12-20T02:17:15;7.40;99.90
11035;DHT22;5571;48.110;-1.706;2023-12-20T02:19:41;7.40;99.90
11035;DHT22;5571;48.110;-1.706;2023-12-20T02:22:11;7.40;99.90
11035;DHT22;5571;48.110;-1.706;2023-12-20T02:24:37;7.40;99.90
11035;DHT22;5571;48.110;-1.706;2023-12-20T02:27:03;7.40;99.90
11035;DHT22;5571;48.110;-1.706;2023-12-20T02:29:30;7.40;99.90
11035;DHT22;5571;48.110;-1.706;2023-12-20T02:31:56;7.40;99.90
11035;DHT22;5571;48.110;-1.706;2023-12-20T02:34:22;7.40;99.90
11035;DHT22;5571;48.110;-1.706;2023-12-20T02:36:47;7.40;99.90
11035;DHT22;5571;48.110;-1.706;2023-12-20T02:39:13;7.50;99.90
11035;DHT22;5571;48.110;-1.706;2023-12-20T02:41:39;7.50;99.90
11035;DHT22;5571;48.110;-1.706;2023-12-20T02:44:04;7.50;99.90
11035;DHT22;5571;48.110;-1.706;2023-12-20T02:46:30;7.50;99.90
11035;DHT22;5571;48.110;-1.706;2023-12-20T02:48:56;7.50;99.90
11035;DHT22;5571;48.110;-1.706;2023-12-20T02:51:21;7.50;99.90
11035;DHT22;5571;48.110;-1.706;2023-12-20T02:53:47;7.50;99.90
11035;DHT22;5571;48.110;-1.706;2023-12-20T02:56:12;7.50;99.90
11035;DHT22;5571;48.110;-1.706;2023-12-20T02:58:39;7.50;99.90
11035;DHT22;5571;48.110;-1.706;2023-12-20T03:01:05;7.40;99.90
11035;DHT22;5571;48.110;-1.706;2023-12-20T03:03:31;7.30;99.90
11035;DHT22;5571;48.110;-1.706;2023-12-20T03:05:57;7.40;99.90
11035;DHT22;5571;48.110;-1.706;2023-12-20T03:08:22;7.40;99.90
11035;DHT22;5571;48.110;-1.706;2023-12-20T03:10:48;7.40;99.90
11035;DHT22;5571;48.110;-1.706;2023-12-20T03:13:14;7.30;99.90
11035;DHT22;5571;48.110;-1.706;2023-12-20T03:15:40;7.30;99.90
11035;DHT22;5571;48.110;-1.706;2023-12-20T03:18:05;7.30;99.90
11035;DHT22;5571;48.110;-1.706;2023-12-20T03:20:31;7.30;99.90
11035;DHT22;5571;48.110;-1.706;2023-12-20T03:23:00;7.30;99.90
11035;DHT22;5571;48.110;-1.706;2023-12-20T03:25:25;7.20;99.90
11035;DHT22;5571;48.110;-1.706;2023-12-20T03:27:52;7.20;99.90
11035;DHT22;5571;48.110;-1.706;2023-12-20T03:30:18;7.20;99.90
11035;DHT22;5571;48.110;-1.706;2023-12-20T03:32:44;7.20;99.90
11035;DHT22;5571;48.110;-1.706;2023-12-20T03:35:09;7.20;99.90
11035;DHT22;5571;48.110;-1.706;2023-12-20T03:37:35;7.20;99.90
11035;DHT22;5571;48.110;-1.706;2023-12-20T03:40:01;7.20;99.90
11035;DHT22;5571;48.110;-1.706;2023-12-20T03:42:27;7.20;99.90
11035;DHT22;5571;48.110;-1.706;2023-12-20T03:44:53;7.10;99.90
11035;DHT22;5571;48.110;-1.706;2023-12-20T03:47:18;7.00;99.90
11035;DHT22;5571;48.110;-1.706;2023-12-20T03:49:44;7.10;99.90
11035;DHT22;5571;48.110;-1.706;2023-12-20T03:52:09;7.10;99.90
11035;DHT22;5571;48.110;-1.706;2023-12-20T03:54:35;7.00;99.90
11035;DHT22;5571;48.110;-1.706;2023-12-20T03:57:01;7.10;99.90
11035;DHT22;5571;48.110;-1.706;2023-12-20T03:59:26;7.00;99.90
11035;DHT22;5571;48.110;-1.706;2023-12-20T04:01:52;6.90;99.90
11035;DHT22;5571;48.110;-1.706;2023-12-20T04:04:18;7.00;99.90
11035;DHT22;5571;48.110;-1.706;2023-12-20T04:06:44;7.00;99.90
11035;DHT22;5571;48.110;-1.706;2023-12-20T04:09:09;7.00;99.90
11035;DHT22;5571;48.110;-1.706;2023-12-20T04:11:36;7.10;99.90
11035;DHT22;5571;48.110;-1.706;2023-12-20T04:14:01;7.10;99.90
11035;DHT22;5571;48.110;-1.706;2023-12-20T04:16:27;7.10;99.90
11035;DHT22;5571;48.110;-1.706;2023-12-20T04:18:52;7.20;99.90
11035;DHT22;5571;48.110;-1.706;2023-12-20T04:21:18;7.20;99.90
11035;DHT22;5571;48.110;-1.706;2023-12-20T04:23:44;7.20;99.90
11035;DHT22;5571;48.110;-1.706;2023-12-20T04:26:10;7.20;99.90
11035;DHT22;5571;48.110;-1.706;2023-12-20T04:28:35;7.20;99.90
11035;DHT22;5571;48.110;-1.706;2023-12-20T04:31:01;7.20;99.90
11035;DHT22;5571;48.110;-1.706;2023-12-20T04:33:26;7.20;99.90
11035;DHT22;5571;48.110;-1.706;2023-12-20T04:35:52;7.20;99.90
11035;DHT22;5571;48.110;-1.706;2023-12-20T04:38:18;7.30;99.90
11035;DHT22;5571;48.110;-1.706;2023-12-20T04:40:43;7.20;99.90
11035;DHT22;5571;48.110;-1.706;2023-12-20T04:43:09;7.20;99.90
11035;DHT22;5571;48.110;-1.706;2023-12-20T04:45:35;7.20;99.90
11035;DHT22;5571;48.110;-1.706;2023-12-20T04:48:01;7.20;99.90
11035;DHT22;5571;48.110;-1.706;2023-12-20T04:50:27;7.20;99.90
11035;DHT22;5571;48.110;-1.706;2023-12-20T04:52:53;7.20;99.90
11035;DHT22;5571;48.110;-1.706;2023-12-20T04:55:19;7.20;99.90
11035;DHT22;5571;48.110;-1.706;2023-12-20T04:57:45;7.20;99.90
11035;DHT22;5571;48.110;-1.706;2023-12-20T05:00:11;7.20;99.90
11035;DHT22;5571;48.110;-1.706;2023-12-20T05:02:37;7.20;99.90
11035;DHT22;5571;48.110;-1.706;2023-12-20T05:05:03;7.10;99.90
11035;DHT22;5571;48.110;-1.706;2023-12-20T05:07:29;7.10;99.90
11035;DHT22;5571;48.110;-1.706;2023-12-20T05:09:54;7.20;99.90
11035;DHT22;5571;48.110;-1.706;2023-12-20T05:12:20;7.10;99.90
11035;DHT22;5571;48.110;-1.706;2023-12-20T05:14:46;7.20;99.90
11035;DHT22;5571;48.110;-1.706;2023-12-20T05:17:12;7.20;99.90
11035;DHT22;5571;48.110;-1.706;2023-12-20T05:19:37;7.20;99.90
11035;DHT22;5571;48.110;-1.706;2023-12-20T05:22:03;7.20;99.90
11035;DHT22;5571;48.110;-1.706;2023-12-20T05:24:29;7.20;99.90
11035;DHT22;5571;48.110;-1.706;2023-12-20T05:26:54;7.20;99.90
11035;DHT22;5571;48.110;-1.706;2023-12-20T05:29:20;7.20;99.90
11035;DHT22;5571;48.110;-1.706;2023-12-20T05:31:46;7.20;99.90
11035;DHT22;5571;48.110;-1.706;2023-12-20T05:34:11;7.20;99.90
11035;DHT22;5571;48.110;-1.706;2023-12-20T05:36:37;7.10;99.90
11035;DHT22;5571;48.110;-1.706;2023-12-20T05:39:04;7.10;99.90
11035;DHT22;5571;48.110;-1.706;2023-12-20T05:41:30;7.10;99.90
11035;DHT22;5571;48.110;-1.706;2023-12-20T05:43:56;7.00;99.90
11035;DHT22;5571;48.110;-1.706;2023-12-20T05:46:23;7.00;99.90
11035;DHT22;5571;48.110;-1.706;2023-12-20T05:48:49;7.00;99.90
11035;DHT22;5571;48.110;-1.706;2023-12-20T05:51:15;7.00;99.90
11035;DHT22;5571;48.110;-1.706;2023-12-20T05:53:41;6.90;99.90
11035;DHT22;5571;48.110;-1.706;2023-12-20T05:56:06;7.00;99.90
11035;DHT22;5571;48.110;-1.706;2023-12-20T05:58:33;6.90;99.90
11035;DHT22;5571;48.110;-1.706;2023-12-20T06:00:58;7.00;99.90
11035;DHT22;5571;48.110;-1.706;2023-12-20T06:03:24;6.90;99.90
11035;DHT22;5571;48.110;-1.706;2023-12-20T06:05:50;6.90;99.90
11035;DHT22;5571;48.110;-1.706;2023-12-20T06:08:15;6.90;99.90
11035;DHT22;5571;48.110;-1.706;2023-12-20T06:10:41;6.90;99.90
11035;DHT22;5571;48.110;-1.706;2023-12-20T06:13:06;6.80;99.90
11035;DHT22;5571;48.110;-1.706;2023-12-20T06:15:32;6.90;99.90
11035;DHT22;5571;48.110;-1.706;2023-12-20T06:17:58;6.90;99.90
11035;DHT22;5571;48.110;-1.706;2023-12-20T06:20:24;6.90;99.90
11035;DHT22;5571;48.110;-1.706;2023-12-20T06:22:50;7.00;99.90
11035;DHT22;5571;48.110;-1.706;2023-12-20T06:25:16;7.00;99.90
11035;DHT22;5571;48.110;-1.706;2023-12-20T06:27:42;7.00;99.90
11035;DHT22;5571;48.110;-1.706;2023-12-20T06:30:08;7.10;99.90
11035;DHT22;5571;48.110;-1.706;2023-12-20T06:32:36;7.00;99.90
11035;DHT22;5571;48.110;-1.706;2023-12-20T06:35:04;7.00;99.90
11035;DHT22;5571;48.110;-1.706;2023-12-20T06:37:30;7.10;99.90
11035;DHT22;5571;48.110;-1.706;2023-12-20T06:39:56;7.10;99.90
11035;DHT22;5571;48.110;-1.706;2023-12-20T06:42:22;7.10;99.90
11035;DHT22;5571;48.110;-1.706;2023-12-20T06:44:48;7.10;99.90
11035;DHT22;5571;48.110;-1.706;2023-12-20T06:47:13;7.00;99.90
11035;DHT22;5571;48.110;-1.706;2023-12-20T06:49:40;7.10;99.90
11035;DHT22;5571;48.110;-1.706;2023-12-20T06:52:05;7.10;99.90
11035;DHT22;5571;48.110;-1.706;2023-12-20T06:54:31;7.10;99.90
11035;DHT22;5571;48.110;-1.706;2023-12-20T06:56:57;7.10;99.90
11035;DHT22;5571;48.110;-1.706;2023-12-20T06:59:22;7.10;99.90
11035;DHT22;5571;48.110;-1.706;2023-12-20T07:01:48;7.00;99.90
11035;DHT22;5571;48.110;-1.706;2023-12-20T07:04:15;7.10;99.90
11035;DHT22;5571;48.110;-1.706;2023-12-20T07:06:40;7.10;99.90
11035;DHT22;5571;48.110;-1.706;2023-12-20T07:09:06;7.10;99.90
11035;DHT22;5571;48.110;-1.706;2023-12-20T07:11:32;7.10;99.90
11035;DHT22;5571;48.110;-1.706;2023-12-20T07:13:57;7.10;99.90
11035;DHT22;5571;48.110;-1.706;2023-12-20T07:16:24;7.20;99.90
11035;DHT22;5571;48.110;-1.706;2023-12-20T07:18:50;7.10;99.90
11035;DHT22;5571;48.110;-1.706;2023-12-20T07:21:15;7.10;99.90
11035;DHT22;5571;48.110;-1.706;2023-12-20T07:23:41;7.10;99.90
11035;DHT22;5571;48.110;-1.706;2023-12-20T07:26:06;7.10;99.90
11035;DHT22;5571;48.110;-1.706;2023-12-20T07:28:32;7.10;99.90
11035;DHT22;5571;48.110;-1.706;2023-12-20T07:30:58;7.10;99.90
11035;DHT22;5571;48.110;-1.706;2023-12-20T07:33:24;7.00;99.90
11035;DHT22;5571;48.110;-1.706;2023-12-20T07:35:49;7.00;99.90
11035;DHT22;5571;48.110;-1.706;2023-12-20T07:38:17;7.00;99.90
11035;DHT22;5571;48.110;-1.706;2023-12-20T07:40:42;7.00;99.90
11035;DHT22;5571;48.110;-1.706;2023-12-20T07:43:08;7.00;99.90
11035;DHT22;5571;48.110;-1.706;2023-12-20T07:45:34;6.90;99.90
11035;DHT22;5571;48.110;-1.706;2023-12-20T07:47:59;7.00;99.90
11035;DHT22;5571;48.110;-1.706;2023-12-20T07:50:25;7.00;99.90
11035;DHT22;5571;48.110;-1.706;2023-12-20T07:52:51;7.00;99.90
11035;DHT22;5571;48.110;-1.706;2023-12-20T07:55:17;7.10;99.90
11035;DHT22;5571;48.110;-1.706;2023-12-20T07:57:42;7.10;99.90
11035;DHT22;5571;48.110;-1.706;2023-12-20T08:00:08;7.00;99.90
11035;DHT22;5571;48.110;-1.706;2023-12-20T08:02:34;7.00;99.90
11035;DHT22;5571;48.110;-1.706;2023-12-20T08:05:00;7.00;99.90
11035;DHT22;5571;48.110;-1.706;2023-12-20T08:07:25;7.10;99.90
11035;DHT22;5571;48.110;-1.706;2023-12-20T08:09:51;7.10;99.90
11035;DHT22;5571;48.110;-1.706;2023-12-20T08:12:17;7.10;99.90
11035;DHT22;5571;48.110;-1.706;2023-12-20T08:14:43;7.00;99.90
11035;DHT22;5571;48.110;-1.706;2023-12-20T08:17:09;7.00;99.90
11035;DHT22;5571;48.110;-1.706;2023-12-20T08:19:34;7.00;99.90
11035;DHT22;5571;48.110;-1.706;2023-12-20T08:22:00;7.00;99.90
11035;DHT22;5571;48.110;-1.706;2023-12-20T08:24:25;7.00;99.90
11035;DHT22;5571;48.110;-1.706;2023-12-20T08:26:51;7.00;99.90
11035;DHT22;5571;48.110;-1.706;2023-12-20T08:29:17;7.10;99.90
11035;DHT22;5571;48.110;-1.706;2023-12-20T08:31:43;7.10;99.90
11035;DHT22;5571;48.110;-1.706;2023-12-20T08:34:09;7.10;99.90
11035;DHT22;5571;48.110;-1.706;2023-12-20T08:36:37;7.10;99.90
11035;DHT22;5571;48.110;-1.706;2023-12-20T08:39:03;7.20;99.90
11035;DHT22;5571;48.110;-1.706;2023-12-20T08:41:31;7.20;99.90
11035;DHT22;5571;48.110;-1.706;2023-12-20T08:43:57;7.20;99.90
11035;DHT22;5571;48.110;-1.706;2023-12-20T08:46:23;7.30;99.90
11035;DHT22;5571;48.110;-1.706;2023-12-20T08:48:48;7.30;99.90
11035;DHT22;5571;48.110;-1.706;2023-12-20T08:51:14;7.30;99.90
11035;DHT22;5571;48.110;-1.706;2023-12-20T08:53:39;7.30;99.90
11035;DHT22;5571;48.110;-1.706;2023-12-20T08:56:05;7.30;99.90
11035;DHT22;5571;48.110;-1.706;2023-12-20T08:58:31;7.30;99.90
11035;DHT22;5571;48.110;-1.706;2023-12-20T09:00:56;7.30;99.90
11035;DHT22;5571;48.110;-1.706;2023-12-20T09:03:22;7.30;99.90
11035;DHT22;5571;48.110;-1.706;2023-12-20T09:05:48;7.20;99.90
11035;DHT22;5571;48.110;-1.706;2023-12-20T09:08:14;7.30;99.90
11035;DHT22;5571;48.110;-1.706;2023-12-20T09:10:39;7.30;99.90
11035;DHT22;5571;48.110;-1.706;2023-12-20T09:13:05;7.40;99.90
11035;DHT22;5571;48.110;-1.706;2023-12-20T09:15:30;7.50;99.90
11035;DHT22;5571;48.110;-1.706;2023-12-20T09:17:56;7.50;99.90
11035;DHT22;5571;48.110;-1.706;2023-12-20T09:20:22;7.50;99.90
11035;DHT22;5571;48.110;-1.706;2023-12-20T09:22:49;7.50;99.90
11035;DHT22;5571;48.110;-1.706;2023-12-20T09:25:14;7.50;99.90
11035;DHT22;5571;48.110;-1.706;2023-12-20T09:27:41;7.60;99.90
11035;DHT22;5571;48.110;-1.706;2023-12-20T09:30:07;7.60;99.90
11035;DHT22;5571;48.110;-1.706;2023-12-20T09:32:33;7.80;99.90
11035;DHT22;5571;48.110;-1.706;2023-12-20T09:34:58;7.90;99.90
11035;DHT22;5571;48.110;-1.706;2023-12-20T09:37:28;8.00;99.90
11035;DHT22;5571;48.110;-1.706;2023-12-20T09:39:54;8.10;99.90
11035;DHT22;5571;48.110;-1.706;2023-12-20T09:42:37;8.20;99.90
11035;DHT22;5571;48.110;-1.706;2023-12-20T09:45:08;8.40;99.90
11035;DHT22;5571;48.110;-1.706;2023-12-20T09:47:34;8.60;99.90
11035;DHT22;5571;48.110;-1.706;2023-12-20T09:50:01;8.80;99.90
11035;DHT22;5571;48.110;-1.706;2023-12-20T09:52:27;8.90;99.90
11035;DHT22;5571;48.110;-1.706;2023-12-20T09:54:53;8.90;99.90
11035;DHT22;5571;48.110;-1.706;2023-12-20T09:57:20;8.80;99.90
11035;DHT22;5571;48.110;-1.706;2023-12-20T09:59:46;8.80;99.90
11035;DHT22;5571;48.110;-1.706;2023-12-20T10:02:13;8.90;99.90
11035;DHT22;5571;48.110;-1.706;2023-12-20T10:04:46;9.10;99.90
11035;DHT22;5571;48.110;-1.706;2023-12-20T10:07:13;9.20;99.90
11035;DHT22;5571;48.110;-1.706;2023-12-20T10:09:39;9.40;99.90
11035;DHT22;5571;48.110;-1.706;2023-12-20T10:12:05;9.60;99.90
11035;DHT22;5571;48.110;-1.706;2023-12-20T10:14:32;9.70;99.90
11035;DHT22;5571;48.110;-1.706;2023-12-20T10:17:04;10.00;99.90
11035;DHT22;5571;48.110;-1.706;2023-12-20T10:19:31;10.30;99.90
11035;DHT22;5571;48.110;-1.706;2023-12-20T10:22:00;10.50;99.90
11035;DHT22;5571;48.110;-1.706;2023-12-20T10:24:28;10.50;99.90
11035;DHT22;5571;48.110;-1.706;2023-12-20T10:27:04;10.70;99.90
11035;DHT22;5571;48.110;-1.706;2023-12-20T10:29:37;11.00;99.90
11035;DHT22;5571;48.110;-1.706;2023-12-20T10:32:26;11.30;99.90
11035;DHT22;5571;48.110;-1.706;2023-12-20T10:34:55;11.20;99.90
11035;DHT22;5571;48.110;-1.706;2023-12-20T10:37:21;10.80;99.90
11035;DHT22;5571;48.110;-1.706;2023-12-20T10:39:51;10.60;99.90
11035;DHT22;5571;48.110;-1.706;2023-12-20T10:42:21;10.70;99.90
11035;DHT22;5571;48.110;-1.706;2023-12-20T10:44:49;10.80;99.90
11035;DHT22;5571;48.110;-1.706;2023-12-20T10:47:16;10.90;99.90
11035;DHT22;5571;48.110;-1.706;2023-12-20T10:49:43;11.20;99.90
11035;DHT22;5571;48.110;-1.706;2023-12-20T10:52:11;11.50;99.90
11035;DHT22;5571;48.110;-1.706;2023-12-20T10:54:37;11.80;99.90
11035;DHT22;5571;48.110;-1.706;2023-12-20T10:57:05;12.00;99.90
11035;DHT22;5571;48.110;-1.706;2023-12-20T10:59:33;12.40;99.90
11035;DHT22;5571;48.110;-1.706;2023-12-20T11:02:02;12.50;99.90
11035;DHT22;5571;48.110;-1.706;2023-12-20T11:04:39;12.40;99.90
11035;DHT22;5571;48.110;-1.706;2023-12-20T11:07:20;12.40;99.90
11035;DHT22;5571;48.110;-1.706;2023-12-20T11:10:19;12.40;99.90
11035;DHT22;5571;48.110;-1.706;2023-12-20T11:12:51;12.50;99.90
11035;DHT22;5571;48.110;-1.706;2023-12-20T11:15:19;12.50;99.90
11035;DHT22;5571;48.110;-1.706;2023-12-20T11:17:45;12.40;99.90
11035;DHT22;5571;48.110;-1.706;2023-12-20T11:20:14;12.90;99.90
11035;DHT22;5571;48.110;-1.706;2023-12-20T11:22:52;12.90;99.90
11035;DHT22;5571;48.110;-1.706;2023-12-20T11:25:18;12.90;99.90
11035;DHT22;5571;48.110;-1.706;2023-12-20T11:27:44;13.10;99.90
11035;DHT22;5571;48.110;-1.706;2023-12-20T11:30:11;13.10;99.90
11035;DHT22;5571;48.110;-1.706;2023-12-20T11:32:37;13.40;99.90
11035;DHT22;5571;48.110;-1.706;2023-12-20T11:37:38;13.70;99.90
11035;DHT22;5571;48.110;-1.706;2023-12-20T11:40:11;13.70;99.90
11035;DHT22;5571;48.110;-1.706;2023-12-20T11:42:40;13.50;99.90
11035;DHT22;5571;48.110;-1.706;2023-12-20T11:45:10;13.50;99.90
11035;DHT22;5571;48.110;-1.706;2023-12-20T11:47:36;13.30;99.90
11035;DHT22;5571;48.110;-1.706;2023-12-20T11:50:02;13.10;99.90
11035;DHT22;5571;48.110;-1.706;2023-12-20T11:52:29;13.00;99.90
11035;DHT22;5571;48.110;-1.706;2023-12-20T11:54:56;13.20;99.90
11035;DHT22;5571;48.110;-1.706;2023-12-20T11:57:22;13.40;99.90
11035;DHT22;5571;48.110;-1.706;2023-12-20T11:59:48;13.70;99.90
11035;DHT22;5571;48.110;-1.706;2023-12-20T12:02:14;13.60;99.90
11035;DHT22;5571;48.110;-1.706;2023-12-20T12:04:43;13.60;99.90
11035;DHT22;5571;48.110;-1.706;2023-12-20T12:07:09;13.60;99.90
11035;DHT22;5571;48.110;-1.706;2023-12-20T12:09:35;13.60;99.90
11035;DHT22;5571;48.110;-1.706;2023-12-20T12:12:01;13.70;99.90
11035;DHT22;5571;48.110;-1.706;2023-12-20T12:14:27;13.60;99.90
11035;DHT22;5571;48.110;-1.706;2023-12-20T12:16:53;13.50;99.90
11035;DHT22;5571;48.110;-1.706;2023-12-20T12:19:22;13.10;99.90
11035;DHT22;5571;48.110;-1.706;2023-12-20T12:21:50;13.10;99.90
11035;DHT22;5571;48.110;-1.706;2023-12-20T12:24:20;13.30;99.90
11035;DHT22;5571;48.110;-1.706;2023-12-20T12:26:53;13.60;99.90
11035;DHT22;5571;48.110;-1.706;2023-12-20T12:29:22;13.80;99.90
11035;DHT22;5571;48.110;-1.706;2023-12-20T12:31:50;13.40;99.90
11035;DHT22;5571;48.110;-1.706;2023-12-20T12:34:16;13.00;99.90
11035;DHT22;5571;48.110;-1.706;2023-12-20T12:36:43;12.60;99.90
11035;DHT22;5571;48.110;-1.706;2023-12-20T12:39:09;12.20;99.90
11035;DHT22;5571;48.110;-1.706;2023-12-20T12:41:35;12.10;99.90
11035;DHT22;5571;48.110;-1.706;2023-12-20T12:44:01;11.90;99.90
11035;DHT22;5571;48.110;-1.706;2023-12-20T12:46:26;11.80;99.90
11035;DHT22;5571;48.110;-1.706;2023-12-20T12:48:52;11.80;99.90
11035;DHT22;5571;48.110;-1.706;2023-12-20T12:51:17;11.90;99.90
11035;DHT22;5571;48.110;-1.706;2023-12-20T12:53:43;11.80;99.90
11035;DHT22;5571;48.110;-1.706;2023-12-20T12:56:09;11.80;99.90
11035;DHT22;5571;48.110;-1.706;2023-12-20T12:58:34;11.90;99.90
11035;DHT22;5571;48.110;-1.706;2023-12-20T13:01:00;11.90;99.90
11035;DHT22;5571;48.110;-1.706;2023-12-20T13:03:26;11.80;99.90
11035;DHT22;5571;48.110;-1.706;2023-12-20T13:05:51;11.70;99.90
11035;DHT22;5571;48.110;-1.706;2023-12-20T13:08:17;11.60;99.90
11035;DHT22;5571;48.110;-1.706;2023-12-20T13:10:43;11.50;99.90
11035;DHT22;5571;48.110;-1.706;2023-12-20T13:13:08;11.40;99.90
11035;DHT22;5571;48.110;-1.706;2023-12-20T13:15:34;11.40;99.90
11035;DHT22;5571;48.110;-1.706;2023-12-20T13:17:59;11.40;99.90
11035;DHT22;5571;48.110;-1.706;2023-12-20T13:20:25;11.30;99.90
11035;DHT22;5571;48.110;-1.706;2023-12-20T13:22:51;11.20;99.90
11035;DHT22;5571;48.110;-1.706;2023-12-20T13:25:16;11.10;99.90
11035;DHT22;5571;48.110;-1.706;2023-12-20T13:27:42;11.10;99.90
11035;DHT22;5571;48.110;-1.706;2023-12-20T13:30:09;11.10;99.90
11035;DHT22;5571;48.110;-1.706;2023-12-20T13:32:34;11.00;99.90
11035;DHT22;5571;48.110;-1.706;2023-12-20T13:35:00;11.00;99.90
11035;DHT22;5571;48.110;-1.706;2023-12-20T13:37:26;11.00;99.90
11035;DHT22;5571;48.110;-1.706;2023-12-20T13:39:52;11.00;99.90
11035;DHT22;5571;48.110;-1.706;2023-12-20T13:42:17;11.00;99.90
11035;DHT22;5571;48.110;-1.706;2023-12-20T13:44:43;11.10;99.90
11035;DHT22;5571;48.110;-1.706;2023-12-20T13:47:09;11.10;99.90
11035;DHT22;5571;48.110;-1.706;2023-12-20T13:49:35;11.10;99.90
11035;DHT22;5571;48.110;-1.706;2023-12-20T13:52:00;11.00;99.90
11035;DHT22;5571;48.110;-1.706;2023-12-20T13:54:26;11.00;99.90
11035;DHT22;5571;48.110;-1.706;2023-12-20T13:56:51;11.00;99.90
11035;DHT22;5571;48.110;-1.706;2023-12-20T13:59:17;11.00;99.90
11035;DHT22;5571;48.110;-1.706;2023-12-20T14:01:43;10.90;99.90
11035;DHT22;5571;48.110;-1.706;2023-12-20T14:04:08;11.10;99.90
11035;DHT22;5571;48.110;-1.706;2023-12-20T14:06:34;11.00;99.90
11035;DHT22;5571;48.110;-1.706;2023-12-20T14:09:00;11.00;99.90
11035;DHT22;5571;48.110;-1.706;2023-12-20T14:11:28;11.10;99.90
11035;DHT22;5571;48.110;-1.706;2023-12-20T14:13:54;11.40;99.90
11035;DHT22;5571;48.110;-1.706;2023-12-20T14:16:26;11.80;99.90
11035;DHT22;5571;48.110;-1.706;2023-12-20T14:18:51;12.00;99.90
11035;DHT22;5571;48.110;-1.706;2023-12-20T14:21:17;11.80;99.90
11035;DHT22;5571;48.110;-1.706;2023-12-20T14:23:45;11.60;99.90
11035;DHT22;5571;48.110;-1.706;2023-12-20T14:26:11;11.40;99.90
11035;DHT22;5571;48.110;-1.706;2023-12-20T14:28:41;11.40;99.90
11035;DHT22;5571;48.110;-1.706;2023-12-20T14:31:07;11.30;99.90
11035;DHT22;5571;48.110;-1.706;2023-12-20T14:33:32;11.20;99.90
11035;DHT22;5571;48.110;-1.706;2023-12-20T14:35:58;11.10;99.90
11035;DHT22;5571;48.110;-1.706;2023-12-20T14:38:23;11.10;99.90
11035;DHT22;5571;48.110;-1.706;2023-12-20T14:40:50;11.00;99.90
11035;DHT22;5571;48.110;-1.706;2023-12-20T14:43:16;11.10;99.90
11035;DHT22;5571;48.110;-1.706;2023-12-20T14:45:42;11.10;99.90
11035;DHT22;5571;48.110;-1.706;2023-12-20T14:48:08;11.00;99.90
11035;DHT22;5571;48.110;-1.706;2023-12-20T14:50:33;11.00;99.90
11035;DHT22;5571;48.110;-1.706;2023-12-20T14:52:59;11.00;99.90
11035;DHT22;5571;48.110;-1.706;2023-12-20T14:55:25;11.00;99.90
11035;DHT22;5571;48.110;-1.706;2023-12-20T14:57:53;11.00;99.90
11035;DHT22;5571;48.110;-1.706;2023-12-20T15:00:18;11.00;99.90
11035;DHT22;5571;48.110;-1.706;2023-12-20T15:02:45;11.00;99.90
11035;DHT22;5571;48.110;-1.706;2023-12-20T15:05:11;11.00;99.90
11035;DHT22;5571;48.110;-1.706;2023-12-20T15:07:36;11.00;99.90
11035;DHT22;5571;48.110;-1.706;2023-12-20T15:10:02;10.90;99.90
11035;DHT22;5571;48.110;-1.706;2023-12-20T15:12:28;10.90;99.90
11035;DHT22;5571;48.110;-1.706;2023-12-20T15:14:53;10.90;99.90
11035;DHT22;5571;48.110;-1.706;2023-12-20T15:17:19;10.90;99.90
11035;DHT22;5571;48.110;-1.706;2023-12-20T15:19:45;10.90;99.90
11035;DHT22;5571;48.110;-1.706;2023-12-20T15:22:10;10.90;99.90
11035;DHT22;5571;48.110;-1.706;2023-12-20T15:24:39;10.90;99.90
11035;DHT22;5571;48.110;-1.706;2023-12-20T15:27:06;10.80;99.90
11035;DHT22;5571;48.110;-1.706;2023-12-20T15:29:32;10.90;99.90
11035;DHT22;5571;48.110;-1.706;2023-12-20T15:31:58;10.80;99.90
11035;DHT22;5571;48.110;-1.706;2023-12-20T15:34:23;10.80;99.90
11035;DHT22;5571;48.110;-1.706;2023-12-20T15:36:49;10.80;99.90